Time;durP1;ratioP1;P1;durP2;ratioP2;P2;SDS_P1;SDS_P2;PMS_P1;PMS_P2;Temp;Humidity;BMP_temperature;BMP_pressure;BME280_temperature;BME280_humidity;BME280_pressure;Samples;Min_cycle;Max_cycle;Signal;HPM_P1;HPM_P2
2023/03/15 00:02:02;;;;;;;6.93;1.52;;;2.80;99.90;;;;;;5040388;28;20478;-65
2023/03/15 00:04:28;;;;;;;2.58;0.80;;;2.80;99.90;;;;;;5040500;28;20144;-65
2023/03/15 00:06:54;;;;;;;7.30;1.58;;;2.70;99.90;;;;;;5042328;28;20143;-66
2023/03/15 00:09:21;;;;;;;3.13;0.80;;;2.80;99.90;;;;;;5042207;28;20045;-65
2023/03/15 00:11:48;;;;;;;3.30;0.88;;;2.70;99.90;;;;;;5070544;28;20076;-66
2023/03/15 00:14:14;;;;;;;3.58;1.17;;;2.70;99.90;;;;;;5040460;28;20053;-66
2023/03/15 00:16:41;;;;;;;3.75;0.88;;;2.70;99.90;;;;;;5071193;28;20084;-65
2023/03/15 00:19:07;;;;;;;6.22;0.90;;;2.80;99.90;;;;;;5044526;28;20041;-65
2023/03/15 00:21:34;;;;;;;5.82;1.00;;;2.80;99.90;;;;;;5045314;28;20053;-65
2023/03/15 00:24:00;;;;;;;5.00;1.20;;;2.80;99.90;;;;;;5043144;28;20040;-66
2023/03/15 00:26:25;;;;;;;5.32;1.42;;;2.70;99.90;;;;;;5048256;28;20040;-65
2023/03/15 00:28:51;;;;;;;3.10;0.90;;;2.70;99.90;;;;;;5040874;28;20107;-65
2023/03/15 00:31:22;;;;;;;3.53;0.80;;;2.70;99.90;;;;;;5038131;28;20056;-66
2023/03/15 00:33:48;;;;;;;9.25;1.25;;;2.70;99.90;;;;;;5046496;28;20076;-66
2023/03/15 00:36:15;;;;;;;9.98;0.93;;;2.80;99.90;;;;;;5042164;28;20037;-65
2023/03/15 00:38:45;;;;;;;4.55;1.00;;;2.90;99.90;;;;;;5045589;28;20108;-66
2023/03/15 00:41:13;;;;;;;5.50;0.98;;;2.90;99.90;;;;;;5031781;28;20558;-66
2023/03/15 00:43:39;;;;;;;8.57;1.02;;;2.90;99.90;;;;;;5024514;28;20056;-66
2023/03/15 00:46:05;;;;;;;5.72;0.85;;;2.90;99.90;;;;;;5048683;28;20044;-66
2023/03/15 00:48:31;;;;;;;6.43;1.10;;;2.90;99.90;;;;;;5049014;28;20037;-65
2023/03/15 00:51:08;;;;;;;6.78;1.45;;;2.80;99.90;;;;;;5048384;28;20156;-65
2023/03/15 00:53:35;;;;;;;8.95;0.90;;;2.80;99.90;;;;;;5050196;28;20056;-65
2023/03/15 00:56:06;;;;;;;5.90;1.25;;;2.70;99.90;;;;;;5031834;28;20045;-65
2023/03/15 00:58:32;;;;;;;3.78;0.77;;;2.70;99.90;;;;;;5036136;28;20152;-67
2023/03/15 01:00:59;;;;;;;5.80;0.90;;;2.60;99.90;;;;;;5066268;28;20754;-65
2023/03/15 01:03:25;;;;;;;7.82;1.58;;;2.60;99.90;;;;;;5040666;28;20099;-64
2023/03/15 01:05:51;;;;;;;3.05;0.88;;;2.50;99.90;;;;;;5033699;28;20037;-66
2023/03/15 01:08:17;;;;;;;4.88;1.02;;;2.50;99.90;;;;;;5068875;28;20044;-65
2023/03/15 01:10:43;;;;;;;8.27;1.35;;;2.50;99.90;;;;;;5051635;28;20053;-65
2023/03/15 01:13:08;;;;;;;8.02;0.95;;;2.40;99.90;;;;;;5048503;28;20075;-65
2023/03/15 01:15:34;;;;;;;5.85;1.08;;;2.40;99.90;;;;;;5050943;28;20133;-66
2023/03/15 01:17:59;;;;;;;3.53;1.08;;;2.30;99.90;;;;;;5040994;28;20037;-65
2023/03/15 01:20:25;;;;;;;5.47;1.33;;;2.30;99.90;;;;;;5065107;28;20502;-65
2023/03/15 01:22:51;;;;;;;2.80;0.77;;;2.20;99.90;;;;;;5036731;28;20451;-65
2023/03/15 01:25:16;;;;;;;7.15;1.30;;;2.20;99.90;;;;;;5032242;28;20065;-66
2023/03/15 01:27:42;;;;;;;4.57;1.25;;;2.20;99.90;;;;;;5069812;28;20048;-65
2023/03/15 01:30:08;;;;;;;9.63;1.20;;;2.10;99.90;;;;;;5037069;28;20124;-64
2023/03/15 01:32:33;;;;;;;4.25;1.08;;;2.10;99.90;;;;;;5067407;28;20045;-65
2023/03/15 01:34:59;;;;;;;5.72;0.95;;;2.10;99.90;;;;;;5036132;28;20032;-65
2023/03/15 01:37:25;;;;;;;5.22;1.08;;;2.00;99.90;;;;;;5041928;28;20056;-65
2023/03/15 01:39:51;;;;;;;6.10;0.90;;;2.00;99.90;;;;;;5049297;28;20393;-64
2023/03/15 01:42:16;;;;;;;7.13;0.90;;;2.00;99.90;;;;;;5045573;28;20743;-65
2023/03/15 01:45:00;;;;;;;4.32;0.82;;;2.00;99.90;;;;;;5023310;28;20452;-65
2023/03/15 01:47:27;;;;;;;2.17;0.70;;;1.90;99.90;;;;;;5035385;28;20531;-65
2023/03/15 01:50:04;;;;;;;7.45;1.38;;;1.90;99.90;;;;;;5034937;28;20093;-65
2023/03/15 01:52:34;;;;;;;5.13;0.90;;;1.90;99.90;;;;;;5035052;28;20045;-65
2023/03/15 01:55:13;;;;;;;3.40;0.63;;;1.80;99.90;;;;;;5038528;28;20120;-65
2023/03/15 01:57:51;;;;;;;6.78;0.90;;;1.80;99.90;;;;;;5041791;28;20537;-65
2023/03/15 02:00:19;;;;;;;9.57;0.75;;;1.90;99.90;;;;;;5050500;28;20045;-66
2023/03/15 02:03:07;;;;;;;3.90;1.00;;;1.90;99.90;;;;;;5033294;28;20118;-66
2023/03/15 02:05:44;;;;;;;3.95;0.65;;;1.90;99.90;;;;;;5041620;28;20455;-66
2023/03/15 02:08:14;;;;;;;3.38;0.52;;;1.90;99.90;;;;;;5065939;28;20040;-65
2023/03/15 02:10:47;;;;;;;4.50;1.02;;;1.90;99.90;;;;;;5045764;28;20052;-65
2023/03/15 02:13:16;;;;;;;4.63;1.00;;;1.80;99.90;;;;;;5066071;28;20488;-66
2023/03/15 02:15:45;;;;;;;5.80;1.00;;;1.80;99.90;;;;;;5037843;28;20076;-65
2023/03/15 02:18:15;;;;;;;2.88;0.60;;;1.80;99.90;;;;;;5022973;28;22075;-65
2023/03/15 02:21:06;;;;;;;3.47;0.90;;;1.80;99.90;;;;;;5035680;28;20064;-65
2023/03/15 02:23:32;;;;;;;8.30;0.80;;;1.70;99.90;;;;;;5031375;28;20048;-65
2023/03/15 02:26:18;;;;;;;8.00;1.17;;;1.70;99.90;;;;;;5035755;28;20396;-65
2023/03/15 02:28:44;;;;;;;6.22;1.10;;;1.70;99.90;;;;;;5045696;28;20102;-65
2023/03/15 02:31:10;;;;;;;5.13;0.70;;;1.70;99.90;;;;;;5049881;28;20093;-65
2023/03/15 02:33:47;;;;;;;6.32;1.30;;;1.80;99.90;;;;;;5022161;28;20060;-65
2023/03/15 02:36:16;;;;;;;8.25;1.60;;;1.80;99.90;;;;;;5030875;28;20408;-65
2023/03/15 02:38:42;;;;;;;9.52;0.95;;;1.80;99.90;;;;;;5035087;28;20041;-65
2023/03/15 02:41:07;;;;;;;7.50;1.20;;;1.90;99.90;;;;;;5033248;28;20044;-65
2023/03/15 02:43:34;;;;;;;6.63;1.17;;;1.90;99.90;;;;;;5031981;28;20435;-65
2023/03/15 02:46:02;;;;;;;5.82;1.05;;;1.90;99.90;;;;;;5065610;28;20045;-64
2023/03/15 02:48:30;;;;;;;5.13;0.90;;;1.90;99.90;;;;;;5038866;28;20484;-66
2023/03/15 02:50:56;;;;;;;8.85;1.20;;;1.90;99.90;;;;;;5049426;28;20045;-65
2023/03/15 02:53:22;;;;;;;4.63;0.90;;;1.90;99.90;;;;;;5045934;28;20029;-65
2023/03/15 02:55:47;;;;;;;5.65;1.02;;;1.90;99.90;;;;;;5047880;28;20036;-66
2023/03/15 02:58:13;;;;;;;10.57;0.80;;;1.90;99.90;;;;;;5048129;28;20041;-64
2023/03/15 03:00:39;;;;;;;8.70;1.17;;;1.90;99.90;;;;;;5049792;28;20434;-65
2023/03/15 03:03:04;;;;;;;6.75;0.80;;;1.90;99.90;;;;;;5049373;28;20055;-64
2023/03/15 03:05:30;;;;;;;6.30;0.90;;;1.90;99.90;;;;;;5048250;28;20056;-64
2023/03/15 03:07:57;;;;;;;5.00;1.27;;;1.80;99.90;;;;;;5049761;28;20041;-65
2023/03/15 03:10:23;;;;;;;4.60;0.98;;;1.80;99.90;;;;;;5035914;28;20056;-66
2023/03/15 03:12:52;;;;;;;6.30;0.90;;;1.80;99.90;;;;;;5047924;28;20049;-65
2023/03/15 03:15:18;;;;;;;6.05;0.60;;;1.80;99.90;;;;;;5044895;28;20076;-65
2023/03/15 03:17:43;;;;;;;6.22;0.63;;;1.80;99.90;;;;;;5047208;28;20044;-66
2023/03/15 03:20:12;;;;;;;4.68;0.90;;;1.70;99.90;;;;;;5048586;28;20182;-66
2023/03/15 03:22:39;;;;;;;5.45;0.82;;;1.70;99.90;;;;;;5045843;28;20041;-65
2023/03/15 03:25:08;;;;;;;3.38;1.23;;;1.60;99.90;;;;;;5045592;28;20124;-65
2023/03/15 03:27:35;;;;;;;4.80;1.25;;;1.60;99.90;;;;;;5033574;28;20041;-65
2023/03/15 03:30:06;;;;;;;4.07;0.70;;;1.60;99.90;;;;;;5047691;28;20049;-66
2023/03/15 03:32:32;;;;;;;7.32;1.23;;;1.60;99.90;;;;;;5030756;28;20041;-66
2023/03/15 03:34:58;;;;;;;5.00;0.68;;;1.50;99.90;;;;;;5049248;28;20498;-66
2023/03/15 03:37:24;;;;;;;3.30;0.63;;;1.50;99.90;;;;;;5046423;28;20039;-66
2023/03/15 03:39:50;;;;;;;5.07;0.90;;;1.40;99.90;;;;;;5032365;28;20483;-66
2023/03/15 03:42:16;;;;;;;4.80;0.70;;;1.30;99.90;;;;;;5047838;28;20044;-65
2023/03/15 03:44:41;;;;;;;3.25;0.68;;;1.30;99.90;;;;;;5048661;28;20044;-65
2023/03/15 03:47:07;;;;;;;4.82;0.80;;;1.20;99.90;;;;;;5048086;28;20079;-65
2023/03/15 03:49:33;;;;;;;4.13;0.90;;;1.20;99.90;;;;;;5042882;28;20407;-65
2023/03/15 03:52:00;;;;;;;4.10;0.70;;;1.10;99.90;;;;;;5050408;28;20563;-65
2023/03/15 03:54:26;;;;;;;5.93;1.10;;;1.10;99.90;;;;;;5049246;28;20072;-65
2023/03/15 03:56:52;;;;;;;2.40;0.70;;;1.00;99.90;;;;;;5049823;28;20498;-65
2023/03/15 03:59:17;;;;;;;3.78;0.90;;;1.00;99.90;;;;;;5043944;28;20162;-65
2023/03/15 04:01:43;;;;;;;4.47;0.80;;;1.00;99.90;;;;;;5048205;28;20091;-65
2023/03/15 04:04:12;;;;;;;4.38;0.70;;;1.00;99.90;;;;;;5046545;28;20044;-65
2023/03/15 04:06:44;;;;;;;8.85;0.85;;;1.00;99.90;;;;;;5047614;28;20124;-65
2023/03/15 04:09:11;;;;;;;3.63;0.70;;;0.90;99.90;;;;;;5045098;28;20072;-65
2023/03/15 04:11:41;;;;;;;5.03;0.77;;;0.90;99.90;;;;;;5034922;28;20456;-64
2023/03/15 04:14:11;;;;;;;5.65;1.10;;;0.90;99.90;;;;;;5046520;28;20587;-65
2023/03/15 04:16:37;;;;;;;4.22;0.80;;;0.90;99.90;;;;;;5050718;28;20064;-65
2023/03/15 04:19:03;;;;;;;8.38;1.15;;;0.90;99.90;;;;;;5052294;28;20123;-64
2023/03/15 04:21:30;;;;;;;4.45;1.13;;;0.90;99.90;;;;;;5062840;28;20430;-65
2023/03/15 04:24:02;;;;;;;4.85;1.42;;;1.00;99.90;;;;;;5045235;28;20041;-65
2023/03/15 04:26:28;;;;;;;3.13;0.88;;;0.90;99.90;;;;;;5052366;28;20045;-64
2023/03/15 04:28:55;;;;;;;4.13;0.88;;;0.90;99.90;;;;;;5052429;28;20049;-65
2023/03/15 04:31:25;;;;;;;4.80;1.10;;;0.90;99.90;;;;;;5046981;28;20045;-64
2023/03/15 04:33:53;;;;;;;5.85;0.93;;;0.90;99.90;;;;;;5045662;28;20084;-64
2023/03/15 04:36:20;;;;;;;8.40;1.52;;;0.80;99.90;;;;;;5037544;28;20046;-65
2023/03/15 04:38:45;;;;;;;10.02;2.08;;;0.80;99.90;;;;;;5036958;28;20392;-64
2023/03/15 04:41:12;;;;;;;9.88;1.77;;;0.80;99.90;;;;;;5038513;28;20049;-65
2023/03/15 04:43:38;;;;;;;8.43;1.17;;;0.90;99.90;;;;;;5043177;28;20049;-64
2023/03/15 04:46:04;;;;;;;4.50;0.98;;;0.90;99.90;;;;;;5068183;28;20674;-66
2023/03/15 04:48:30;;;;;;;10.07;1.35;;;1.00;99.90;;;;;;5070368;28;20097;-64
2023/03/15 04:50:55;;;;;;;6.97;0.90;;;1.00;99.90;;;;;;5037642;28;20029;-65
2023/03/15 04:53:21;;;;;;;6.75;1.13;;;1.00;99.90;;;;;;5038440;28;20036;-65
2023/03/15 04:55:47;;;;;;;6.70;1.10;;;1.00;99.90;;;;;;5039622;28;20045;-64
2023/03/15 04:58:13;;;;;;;7.13;1.17;;;1.00;99.90;;;;;;5051585;28;20037;-64
2023/03/15 05:00:38;;;;;;;4.85;1.20;;;1.00;99.90;;;;;;5051550;28;20048;-64
2023/03/15 05:03:04;;;;;;;4.20;1.10;;;1.00;99.90;;;;;;5046884;28;20036;-65
2023/03/15 05:05:32;;;;;;;9.50;1.10;;;1.00;99.90;;;;;;5034792;28;20083;-66
2023/03/15 05:07:58;;;;;;;6.93;1.17;;;1.00;99.90;;;;;;5051050;28;20049;-65
2023/03/15 05:10:24;;;;;;;8.95;1.30;;;1.10;99.90;;;;;;5052723;28;20044;-66
2023/03/15 05:12:50;;;;;;;4.80;1.50;;;1.10;99.90;;;;;;5052420;28;20080;-65
2023/03/15 05:15:16;;;;;;;7.68;1.40;;;1.10;99.90;;;;;;5051349;28;20496;-65
2023/03/15 05:17:45;;;;;;;9.05;1.25;;;1.00;99.90;;;;;;5051321;28;20400;-65
2023/03/15 05:20:12;;;;;;;5.75;1.00;;;0.90;99.90;;;;;;5034637;28;20037;-64
2023/03/15 05:22:39;;;;;;;5.18;1.13;;;0.90;99.90;;;;;;5051135;28;20048;-64
2023/03/15 05:25:06;;;;;;;6.60;1.15;;;0.90;99.90;;;;;;5050817;28;20041;-64
2023/03/15 05:27:33;;;;;;;6.47;1.10;;;0.90;99.90;;;;;;5053236;28;20051;-65
2023/03/15 05:30:02;;;;;;;9.30;1.95;;;0.90;99.90;;;;;;5050191;28;20045;-64
2023/03/15 05:32:33;;;;;;;9.90;1.50;;;0.80;99.90;;;;;;5050031;28;20047;-64
2023/03/15 05:35:00;;;;;;;6.97;1.10;;;0.80;99.90;;;;;;5050560;28;20040;-66
2023/03/15 05:37:26;;;;;;;9.90;1.10;;;0.80;99.90;;;;;;5048166;28;20037;-64
2023/03/15 05:39:51;;;;;;;7.75;1.60;;;0.80;99.90;;;;;;5050773;28;20037;-65
2023/03/15 05:42:24;;;;;;;6.22;0.90;;;0.80;99.90;;;;;;5051161;28;20377;-64
2023/03/15 05:44:49;;;;;;;;;;;0.80;99.90;;;;;;5051392;28;20045;-65
2023/03/15 05:47:15;;;;;;;7.05;1.10;;;0.80;99.90;;;;;;5051147;28;19924;-65
2023/03/15 05:49:41;;;;;;;8.50;1.13;;;0.80;99.90;;;;;;5050648;28;20116;-65
2023/03/15 05:52:06;;;;;;;4.13;1.10;;;0.90;99.90;;;;;;5050495;28;20116;-64
2023/03/15 05:54:32;;;;;;;6.05;0.90;;;0.90;99.90;;;;;;5047874;28;20072;-65
2023/03/15 05:56:58;;;;;;;7.95;0.85;;;0.90;99.90;;;;;;5050540;28;20048;-65
2023/03/15 05:59:23;;;;;;;6.72;1.10;;;0.90;99.90;;;;;;5050405;28;20075;-64
2023/03/15 06:01:49;;;;;;;4.15;1.10;;;1.00;99.90;;;;;;5052150;28;20072;-64
2023/03/15 06:04:15;;;;;;;5.53;1.52;;;1.00;99.90;;;;;;5050284;28;20465;-65
2023/03/15 06:06:40;;;;;;;4.90;0.90;;;1.00;99.90;;;;;;5050882;28;20051;-64
2023/03/15 06:09:06;;;;;;;4.63;1.30;;;1.10;99.90;;;;;;5077064;28;20041;-65
2023/03/15 06:11:31;;;;;;;6.45;1.60;;;1.10;99.90;;;;;;5050390;28;20087;-65
2023/03/15 06:13:57;;;;;;;4.63;0.88;;;1.10;99.90;;;;;;5049942;28;20045;-64
2023/03/15 06:16:23;;;;;;;4.32;0.70;;;1.20;99.90;;;;;;5049858;28;20103;-64
2023/03/15 06:18:48;;;;;;;2.72;0.55;;;1.30;99.90;;;;;;5050422;28;20056;-64
2023/03/15 06:21:14;;;;;;;6.10;0.95;;;1.30;99.90;;;;;;5049726;28;20076;-64
2023/03/15 06:23:40;;;;;;;3.20;0.80;;;1.30;99.90;;;;;;5049972;28;20072;-64
2023/03/15 06:26:05;;;;;;;3.47;1.38;;;1.30;99.90;;;;;;5050103;28;20048;-64
2023/03/15 06:28:31;;;;;;;5.80;0.88;;;1.40;99.90;;;;;;5050687;28;20043;-64
2023/03/15 06:30:56;;;;;;;7.38;0.90;;;1.40;99.90;;;;;;5049791;28;20093;-65
2023/03/15 06:33:23;;;;;;;7.80;1.30;;;1.40;99.90;;;;;;5046017;28;20046;-64
2023/03/15 06:35:49;;;;;;;3.83;0.80;;;1.40;99.90;;;;;;5050789;28;20037;-64
2023/03/15 06:38:15;;;;;;;5.55;0.82;;;1.50;99.90;;;;;;5049765;28;20058;-64
2023/03/15 06:40:40;;;;;;;2.65;0.80;;;1.50;99.90;;;;;;5049749;28;20041;-65
2023/03/15 06:43:06;;;;;;;5.65;0.88;;;1.60;99.90;;;;;;5048615;28;20526;-65
2023/03/15 06:45:32;;;;;;;5.20;0.90;;;1.70;99.90;;;;;;5048996;28;20714;-67
2023/03/15 06:47:58;;;;;;;4.20;0.90;;;1.70;99.90;;;;;;5049909;28;20036;-64
2023/03/15 06:50:24;;;;;;;3.00;0.88;;;1.80;99.90;;;;;;5045347;28;20052;-65
2023/03/15 06:52:49;;;;;;;4.05;1.15;;;1.80;99.90;;;;;;5047855;28;20045;-65
2023/03/15 06:55:17;;;;;;;3.10;0.90;;;1.80;99.90;;;;;;5048491;28;20037;-65
2023/03/15 06:57:46;;;;;;;3.33;1.20;;;1.80;99.90;;;;;;5049705;28;20456;-65
2023/03/15 07:00:12;;;;;;;5.43;1.08;;;1.80;99.90;;;;;;5050066;28;20040;-65
2023/03/15 07:02:38;;;;;;;5.07;0.93;;;1.80;99.90;;;;;;5049664;28;20036;-64
2023/03/15 07:05:04;;;;;;;3.70;0.98;;;1.80;99.90;;;;;;5053598;28;20064;-65
2023/03/15 07:07:31;;;;;;;4.72;1.10;;;1.90;99.90;;;;;;5046571;28;20098;-65
2023/03/15 07:09:57;;;;;;;4.85;1.00;;;1.90;99.90;;;;;;5049283;28;20048;-65
2023/03/15 07:12:22;;;;;;;7.18;1.40;;;2.00;99.90;;;;;;5049053;28;20108;-66
2023/03/15 07:14:48;;;;;;;4.25;1.08;;;2.10;99.90;;;;;;5031715;28;20044;-65
2023/03/15 07:17:14;;;;;;;9.15;1.00;;;2.10;99.90;;;;;;5048931;28;20124;-65
2023/03/15 07:19:40;;;;;;;4.70;0.90;;;2.20;99.90;;;;;;5048825;28;20048;-65
2023/03/15 07:22:05;;;;;;;7.25;1.30;;;2.30;99.90;;;;;;5048391;28;20047;-66
2023/03/15 07:24:31;;;;;;;3.42;0.90;;;2.30;99.90;;;;;;5047621;28;20128;-65
2023/03/15 07:26:57;;;;;;;6.25;1.08;;;2.40;99.90;;;;;;5048654;28;20044;-65
2023/03/15 07:29:23;;;;;;;6.13;1.60;;;2.50;99.90;;;;;;5082289;28;20400;-65
2023/03/15 07:31:50;;;;;;;5.93;0.93;;;2.50;99.90;;;;;;5051005;28;20545;-68
2023/03/15 07:34:15;;;;;;;7.10;1.05;;;2.60;99.90;;;;;;5048460;28;20037;-65
2023/03/15 07:36:41;;;;;;;2.08;0.80;;;2.80;99.90;;;;;;5048724;28;20403;-65
2023/03/15 07:39:06;;;;;;;3.95;0.90;;;2.80;99.90;;;;;;5048698;28;20037;-65
2023/03/15 07:41:32;;;;;;;4.65;0.80;;;2.90;99.90;;;;;;5052862;28;20060;-65
2023/03/15 07:43:58;;;;;;;3.63;0.77;;;3.00;99.90;;;;;;5048048;28;20041;-64
2023/03/15 07:46:24;;;;;;;4.13;0.90;;;3.10;99.90;;;;;;5048793;28;20044;-65
2023/03/15 07:48:49;;;;;;;4.45;0.65;;;3.20;99.90;;;;;;5048096;28;20135;-66
2023/03/15 07:51:15;;;;;;;4.93;0.93;;;3.30;99.90;;;;;;5048667;28;20036;-65
2023/03/15 07:53:41;;;;;;;6.53;1.15;;;3.40;99.90;;;;;;5048347;28;20116;-65
2023/03/15 07:56:07;;;;;;;2.33;0.70;;;3.50;99.90;;;;;;5053945;28;20037;-65
2023/03/15 07:58:32;;;;;;;5.00;0.80;;;3.60;99.90;;;;;;5055295;28;20373;-65
2023/03/15 08:00:58;;;;;;;5.90;1.10;;;3.80;99.90;;;;;;5038616;28;20060;-67
2023/03/15 08:03:25;;;;;;;4.43;0.80;;;3.80;99.90;;;;;;5055288;28;20468;-66
2023/03/15 08:05:52;;;;;;;3.75;0.60;;;3.90;99.90;;;;;;5055254;28;20432;-66
2023/03/15 08:08:17;;;;;;;5.63;0.73;;;4.00;99.90;;;;;;5055116;28;20178;-67
2023/03/15 08:10:43;;;;;;;9.07;1.73;;;4.10;99.90;;;;;;5055086;28;20123;-64
2023/03/15 08:13:09;;;;;;;7.00;0.70;;;4.10;99.90;;;;;;5054999;28;20037;-64
2023/03/15 08:15:35;;;;;;;6.68;0.95;;;4.10;99.90;;;;;;5055117;28;20060;-65
2023/03/15 08:18:01;;;;;;;5.53;1.55;;;4.20;99.90;;;;;;5055137;28;20052;-65
2023/03/15 08:20:28;;;;;;;4.60;1.00;;;4.30;99.90;;;;;;5055116;28;20163;-65
2023/03/15 08:22:54;;;;;;;7.13;1.20;;;4.40;99.90;;;;;;5055189;28;20503;-66
2023/03/15 08:25:22;;;;;;;6.70;0.90;;;4.50;99.90;;;;;;5055319;28;20134;-64
2023/03/15 08:27:49;;;;;;;6.15;0.70;;;4.60;99.90;;;;;;5055282;28;20124;-65
2023/03/15 08:30:16;;;;;;;8.05;1.13;;;4.70;99.90;;;;;;5054757;28;20962;-65
2023/03/15 08:32:44;;;;;;;4.82;0.90;;;4.70;99.90;;;;;;5055303;28;20048;-64
2023/03/15 08:35:11;;;;;;;5.50;0.90;;;4.80;99.90;;;;;;5054671;28;20033;-66
2023/03/15 08:37:38;;;;;;;5.13;1.00;;;4.80;99.90;;;;;;5054924;28;20127;-67
2023/03/15 08:40:08;;;;;;;8.32;1.10;;;5.00;99.90;;;;;;5054651;28;20062;-65
2023/03/15 08:42:35;;;;;;;6.00;1.25;;;5.00;99.90;;;;;;5038384;28;20132;-64
2023/03/15 08:45:02;;;;;;;7.45;1.35;;;5.10;99.90;;;;;;5054538;28;20106;-64
2023/03/15 08:47:27;;;;;;;9.32;1.05;;;5.20;99.90;;;;;;5054567;28;20045;-65
2023/03/15 08:49:53;;;;;;;3.50;0.85;;;5.30;99.90;;;;;;5056134;28;20043;-66
2023/03/15 08:52:20;;;;;;;3.58;0.82;;;5.30;99.90;;;;;;5053969;28;20140;-65
2023/03/15 08:54:46;;;;;;;4.03;0.95;;;5.30;99.90;;;;;;5054808;28;20090;-66
2023/03/15 08:57:12;;;;;;;1.92;0.60;;;5.40;99.90;;;;;;5054875;28;20041;-65
2023/03/15 08:59:38;;;;;;;3.38;0.70;;;5.50;99.90;;;;;;5038290;28;20041;-66
2023/03/15 09:02:04;;;;;;;7.43;1.80;;;5.70;99.90;;;;;;5055464;28;20376;-65
2023/03/15 09:04:30;;;;;;;5.00;1.00;;;5.80;99.90;;;;;;5054692;28;20039;-65
2023/03/15 09:06:56;;;;;;;5.43;0.70;;;5.90;99.90;;;;;;5051937;28;20037;-65
2023/03/15 09:09:22;;;;;;;7.40;1.10;;;5.90;99.90;;;;;;5051397;28;20045;-65
2023/03/15 09:11:48;;;;;;;7.75;0.95;;;5.90;99.90;;;;;;5051805;28;20063;-66
2023/03/15 09:14:14;;;;;;;4.82;1.02;;;6.00;99.90;;;;;;5051736;28;20082;-66
2023/03/15 09:16:40;;;;;;;7.13;1.33;;;6.10;99.90;;;;;;5051563;28;20136;-65
2023/03/15 09:19:05;;;;;;;5.68;1.15;;;6.00;99.90;;;;;;5051675;28;20049;-65
2023/03/15 09:21:31;;;;;;;4.53;1.40;;;6.00;99.90;;;;;;5051277;28;20511;-66
2023/03/15 09:23:56;;;;;;;3.10;1.17;;;6.10;99.90;;;;;;5051695;28;20045;-65
2023/03/15 09:26:23;;;;;;;3.75;1.05;;;6.00;99.90;;;;;;5034769;28;20459;-66
2023/03/15 09:28:49;;;;;;;6.25;1.38;;;6.20;99.90;;;;;;5051591;28;20496;-65
2023/03/15 09:31:14;;;;;;;6.68;1.30;;;6.40;99.90;;;;;;5051875;28;20053;-66
2023/03/15 09:33:40;;;;;;;4.35;1.17;;;6.50;99.90;;;;;;5051261;28;20033;-65
2023/03/15 09:36:06;;;;;;;4.95;1.20;;;6.80;99.90;;;;;;5035011;28;20033;-65
2023/03/15 09:38:31;;;;;;;6.90;1.55;;;7.00;99.90;;;;;;5051505;28;20135;-66
2023/03/15 09:40:58;;;;;;;6.10;1.30;;;7.20;99.90;;;;;;5051208;28;20045;-65
2023/03/15 09:43:51;;;;;;;4.95;1.25;;;7.20;99.90;;;;;;5034860;28;20049;-66
2023/03/15 09:46:27;;;;;;;5.63;1.50;;;7.00;99.90;;;;;;5034803;28;20114;-65
2023/03/15 09:49:06;;;;;;;3.90;1.13;;;7.00;99.90;;;;;;5051127;28;20373;-65
2023/03/15 09:51:58;;;;;;;7.75;1.65;;;7.10;99.90;;;;;;5051230;28;20480;-65
2023/03/15 09:54:31;;;;;;;6.22;1.80;;;7.30;99.90;;;;;;5051255;28;20041;-65
2023/03/15 09:57:04;;;;;;;7.70;2.25;;;7.70;99.90;;;;;;5051324;28;20482;-66
2023/03/15 09:59:36;;;;;;;5.72;0.95;;;7.80;99.90;;;;;;5050882;28;20446;-66
2023/03/15 10:02:18;;;;;;;7.22;1.20;;;7.70;99.90;;;;;;5050906;28;20037;-65
2023/03/15 10:04:46;;;;;;;8.57;1.25;;;7.80;99.90;;;;;;5050237;28;20415;-66
2023/03/15 10:07:14;;;;;;;5.32;1.10;;;7.90;99.90;;;;;;5050604;28;20535;-65
2023/03/15 10:09:39;;;;;;;4.32;1.40;;;7.80;99.90;;;;;;5050349;28;20052;-66
2023/03/15 10:12:05;;;;;;;9.57;1.50;;;7.50;99.90;;;;;;5050839;28;20579;-65
2023/03/15 10:14:56;;;;;;;6.60;1.10;;;7.40;99.90;;;;;;5050078;28;20076;-65
2023/03/15 10:17:51;;;;;;;7.10;1.10;;;7.60;99.90;;;;;;5049253;28;20047;-66
2023/03/15 10:20:24;;;;;;;6.85;1.45;;;8.10;99.90;;;;;;5033457;28;20055;-65
2023/03/15 10:23:15;;;;;;;7.57;1.42;;;8.30;99.90;;;;;;5050413;28;20051;-66
2023/03/15 10:25:43;;;;;;;6.90;1.10;;;8.50;99.90;;;;;;5034405;28;20416;-65
2023/03/15 10:28:14;;;;;;;4.75;1.00;;;8.20;99.30;;;;;;5051047;28;20500;-65
2023/03/15 10:30:46;;;;;;;6.60;0.80;;;8.40;99.90;;;;;;5049930;28;20120;-65
2023/03/15 10:33:31;;;;;;;6.13;1.02;;;8.30;99.90;;;;;;5050127;28;20047;-67
2023/03/15 10:35:58;;;;;;;5.53;0.90;;;8.60;99.90;;;;;;5050152;28;20040;-65
2023/03/15 10:38:25;;;;;;;5.25;0.90;;;8.90;99.90;;;;;;5047629;28;20037;-66
2023/03/15 10:40:53;;;;;;;4.57;0.95;;;9.00;99.90;;;;;;5048704;28;20043;-65
2023/03/15 10:43:36;;;;;;;6.57;1.08;;;9.20;98.40;;;;;;5049691;28;20036;-65
2023/03/15 10:46:07;;;;;;;6.78;0.90;;;9.20;98.40;;;;;;5049305;28;20052;-67
2023/03/15 10:48:38;;;;;;;5.50;1.05;;;9.30;98.00;;;;;;5048634;28;20041;-66
2023/03/15 10:51:13;;;;;;;5.25;1.00;;;8.90;96.40;;;;;;5049024;28;20068;-66
2023/03/15 10:53:53;;;;;;;4.05;0.70;;;9.00;97.40;;;;;;5033220;28;20507;-66
2023/03/15 10:56:24;;;;;;;6.60;0.80;;;8.50;93.60;;;;;;5032771;28;20040;-67
2023/03/15 10:58:52;;;;;;;5.45;1.38;;;8.00;95.80;;;;;;5047716;28;20047;-67
2023/03/15 11:01:28;;;;;;;5.75;1.60;;;8.00;97.10;;;;;;5048948;28;20049;-66
2023/03/15 11:04:11;;;;;;;8.73;2.05;;;8.40;97.50;;;;;;5049006;28;20041;-66
2023/03/15 11:06:47;;;;;;;6.85;1.17;;;8.70;97.60;;;;;;5049260;28;20094;-66
2023/03/15 11:09:22;;;;;;;7.00;1.02;;;8.90;96.80;;;;;;5047368;28;20056;-67
2023/03/15 11:12:05;;;;;;;7.82;1.52;;;9.00;95.80;;;;;;5049045;28;20041;-67
2023/03/15 11:14:44;;;;;;;8.13;1.50;;;8.60;95.50;;;;;;5048883;28;20049;-68
2023/03/15 11:17:22;;;;;;;6.38;1.02;;;8.00;96.60;;;;;;5048638;28;20044;-66
2023/03/15 11:19:55;;;;;;;5.78;1.33;;;7.50;97.50;;;;;;5047346;28;20040;-67
2023/03/15 11:22:22;;;;;;;5.82;1.00;;;7.70;97.40;;;;;;5049731;28;20116;-66
2023/03/15 11:24:49;;;;;;;13.07;1.30;;;8.10;93.20;;;;;;5049184;28;20175;-68
2023/03/15 11:27:17;;;;;;;4.32;1.20;;;8.40;95.10;;;;;;5048317;28;20072;-66
2023/03/15 11:29:50;;;;;;;4.53;1.67;;;8.70;93.60;;;;;;5048057;28;20499;-67
2023/03/15 11:32:22;;;;;;;6.95;1.20;;;9.40;94.50;;;;;;5031682;28;20111;-67
2023/03/15 11:35:06;;;;;;;6.55;1.20;;;9.70;92.90;;;;;;5048156;28;20040;-66
2023/03/15 11:37:40;;;;;;;6.03;1.27;;;9.20;92.20;;;;;;5031819;28;20037;-67
2023/03/15 11:40:06;;;;;;;5.05;1.13;;;9.00;95.60;;;;;;5032195;28;20040;-66
2023/03/15 11:42:43;;;;;;;3.63;0.75;;;8.60;94.90;;;;;;5046882;28;20075;-67
2023/03/15 11:45:25;;;;;;;6.75;1.30;;;8.30;96.00;;;;;;5048627;28;20068;-66
2023/03/15 11:48:00;;;;;;;5.68;0.88;;;7.90;96.00;;;;;;5048791;28;20045;-66
2023/03/15 11:50:26;;;;;;;6.25;1.10;;;7.60;93.60;;;;;;5048381;28;20072;-66
2023/03/15 11:52:52;;;;;;;5.95;1.17;;;7.80;94.40;;;;;;5046609;28;20083;-66
2023/03/15 11:55:26;;;;;;;10.15;1.35;;;8.30;93.70;;;;;;5047579;28;20041;-67
2023/03/15 11:57:53;;;;;;;6.10;1.17;;;8.90;94.70;;;;;;5048364;28;20124;-67
2023/03/15 12:00:34;;;;;;;6.85;1.50;;;9.30;95.40;;;;;;5048317;28;20052;-66
2023/03/15 12:03:45;;;;;;;7.88;1.17;;;9.30;93.90;;;;;;5046168;28;20554;-67
2023/03/15 12:06:16;;;;;;;3.38;0.90;;;9.80;94.30;;;;;;5047487;28;20128;-66
2023/03/15 12:08:45;;;;;;;6.23;1.17;;;9.60;90.90;;;;;;5048190;28;20103;-67
2023/03/15 12:11:18;;;;;;;4.70;1.13;;;9.90;93.30;;;;;;5048691;28;20041;-66
2023/03/15 12:14:24;;;;;;;8.13;1.05;;;9.90;90.00;;;;;;5046747;28;20048;-66
2023/03/15 12:16:50;;;;;;;4.97;1.00;;;10.20;90.60;;;;;;5046183;28;20048;-66
2023/03/15 12:19:18;;;;;;;8.32;1.35;;;10.10;90.00;;;;;;5031689;28;20391;-68
2023/03/15 12:21:48;;;;;;;4.10;0.85;;;10.20;89.30;;;;;;5048340;28;20980;-67
2023/03/15 12:24:21;;;;;;;4.70;1.10;;;10.20;86.80;;;;;;5048556;28;20624;-66
2023/03/15 12:27:17;;;;;;;5.90;1.35;;;10.10;86.50;;;;;;5029930;28;20103;-67
2023/03/15 12:29:44;;;;;;;8.02;1.65;;;10.00;91.20;;;;;;5043655;28;20123;-66
2023/03/15 12:32:12;;;;;;;5.90;1.45;;;9.80;89.50;;;;;;5047614;28;20044;-66
2023/03/15 12:34:56;;;;;;;5.22;1.38;;;9.60;90.60;;;;;;5046744;28;20049;-66
2023/03/15 12:37:22;;;;;;;5.57;1.25;;;9.60;90.10;;;;;;5048089;28;20532;-67
2023/03/15 12:39:50;;;;;;;3.90;1.10;;;9.70;88.20;;;;;;5047693;28;20119;-67
2023/03/15 12:42:45;;;;;;;5.95;1.35;;;9.50;82.70;;;;;;5051446;28;20154;-67
2023/03/15 12:45:14;;;;;;;7.40;2.38;;;9.40;88.30;;;;;;5047417;28;20131;-66
2023/03/15 12:48:11;;;;;;;3.25;1.20;;;9.30;90.10;;;;;;5051074;28;20491;-67
2023/03/15 12:50:42;;;;;;;4.75;1.23;;;9.30;90.50;;;;;;5051579;28;20094;-67
2023/03/15 12:53:21;;;;;;;5.95;1.10;;;9.40;89.50;;;;;;5050860;28;20504;-67
2023/03/15 12:55:48;;;;;;;4.40;0.95;;;9.50;91.10;;;;;;5052323;28;20039;-66
2023/03/15 12:58:16;;;;;;;5.82;1.15;;;9.60;91.40;;;;;;5035131;28;20047;-67
2023/03/15 13:00:43;;;;;;;7.03;1.10;;;9.40;92.00;;;;;;5051617;28;20049;-66
2023/03/15 13:03:24;;;;;;;4.15;0.90;;;9.30;91.40;;;;;;5049879;28;20080;-68
2023/03/15 13:06:09;;;;;;;4.60;0.80;;;9.30;85.50;;;;;;5051114;28;20488;-67
2023/03/15 13:09:05;;;;;;;5.28;1.10;;;9.10;87.40;;;;;;5047934;28;20048;-66